Time;durP1;ratioP1;P1;durP2;ratioP2;P2;SDS_P1;SDS_P2;PMS_P1;PMS_P2;Temp;Humidity;BMP_temperature;BMP_pressure;BME280_temperature;BME280_humidity;BME280_pressure;Samples;Min_cycle;Max_cycle;Signal;HPM_P1;HPM_P2
2023/12/14 00:01:31;;;;;;;10.32;9.43;;;;;;;;;;5098702;28;20062;-79
2023/12/14 00:03:57;;;;;;;9.88;9.07;;;;;;;;;;5098641;28;20066;-78
2023/12/14 00:06:23;;;;;;;9.02;8.32;;;;;;;;;;5081740;28;20047;-78
2023/12/14 00:08:49;;;;;;;10.38;9.57;;;;;;;;;;5098590;28;20051;-78
2023/12/14 00:11:15;;;;;;;10.63;9.60;;;;;;;;;;5081634;28;20075;-78
2023/12/14 00:13:41;;;;;;;10.43;9.63;;;;;;;;;;5098448;28;20047;-78
2023/12/14 00:16:07;;;;;;;10.93;10.02;;;;;;;;;;5081542;28;20066;-78
2023/12/14 00:18:33;;;;;;;11.07;9.55;;;;;;;;;;5098287;28;20486;-78
2023/12/14 00:20:59;;;;;;;12.65;11.55;;;;;;;;;;5081363;28;20046;-78
2023/12/14 00:23:26;;;;;;;11.27;10.32;;;;;;;;;;5099120;28;20043;-78
2023/12/14 00:25:52;;;;;;;11.18;10.18;;;;;;;;;;5098395;28;20468;-79
2023/12/14 00:28:18;;;;;;;10.32;9.23;;;;;;;;;;5097879;28;20055;-78
2023/12/14 00:30:44;;;;;;;9.48;8.68;;;;;;;;;;5097518;28;20045;-78
2023/12/14 00:33:10;;;;;;;10.75;9.75;;;;;;;;;;5081152;28;20509;-79
2023/12/14 00:35:36;;;;;;;9.73;8.90;;;;;;;;;;5081235;28;20414;-79
2023/12/14 00:38:02;;;;;;;10.93;10.00;;;;;;;;;;5081067;28;20508;-78
2023/12/14 00:40:28;;;;;;;10.15;9.25;;;;;;;;;;5098360;28;20044;-79
2023/12/14 00:42:54;;;;;;;11.48;10.32;;;;;;;;;;5098129;28;20176;-78
2023/12/14 00:45:20;;;;;;;10.93;9.95;;;;;;;;;;5097782;28;20048;-78
2023/12/14 00:47:46;;;;;;;10.82;9.82;;;;;;;;;;5081278;28;20123;-79
2023/12/14 00:50:13;;;;;;;9.38;8.55;;;;;;;;;;5097203;28;20097;-79
2023/12/14 00:52:39;;;;;;;9.35;8.50;;;;;;;;;;5097370;28;20044;-78
2023/12/14 00:55:05;;;;;;;9.43;8.52;;;;;;;;;;5097641;28;20093;-78
2023/12/14 00:57:31;;;;;;;8.40;7.70;;;;;;;;;;5080565;28;20066;-78
2023/12/14 00:59:57;;;;;;;9.00;8.23;;;;;;;;;;5080356;28;20043;-78
2023/12/14 01:02:23;;;;;;;7.50;7.00;;;;;;;;;;5097079;28;20159;-78
2023/12/14 01:04:49;;;;;;;8.60;7.85;;;;;;;;;;5097135;28;20040;-77
2023/12/14 01:07:15;;;;;;;8.88;8.18;;;;;;;;;;5097344;28;20092;-78
2023/12/14 01:09:41;;;;;;;8.50;7.80;;;;;;;;;;5079948;28;20076;-78
2023/12/14 01:12:07;;;;;;;9.30;8.40;;;;;;;;;;5080119;28;20051;-78
2023/12/14 01:14:34;;;;;;;8.48;7.78;;;;;;;;;;5097573;28;20079;-78
2023/12/14 01:17:00;;;;;;;8.30;7.65;;;;;;;;;;5097217;28;20116;-78
2023/12/14 01:19:26;;;;;;;9.20;8.40;;;;;;;;;;5097183;28;20050;-78
2023/12/14 01:21:53;;;;;;;9.25;8.45;;;;;;;;;;5097393;28;20043;-78
2023/12/14 01:24:19;;;;;;;8.90;8.05;;;;;;;;;;5096734;28;20092;-79
2023/12/14 01:26:45;;;;;;;8.48;7.80;;;;;;;;;;5096572;28;20050;-79
2023/12/14 01:29:11;;;;;;;8.70;8.00;;;;;;;;;;5097079;28;20046;-78
2023/12/14 01:31:37;;;;;;;9.00;8.30;;;;;;;;;;5080011;28;20505;-78
2023/12/14 01:34:03;;;;;;;9.27;8.52;;;;;;;;;;5096942;28;20094;-78
2023/12/14 01:36:29;;;;;;;8.98;8.07;;;;;;;;;;5096921;28;20043;-78
2023/12/14 01:38:55;;;;;;;9.10;8.23;;;;;;;;;;5097589;28;20486;-78
2023/12/14 01:41:21;;;;;;;9.80;8.88;;;;;;;;;;5096858;28;20055;-78
2023/12/14 01:43:47;;;;;;;8.52;7.72;;;;;;;;;;5096883;28;20055;-78
2023/12/14 01:46:15;;;;;;;8.60;7.90;;;;;;;;;;5097046;28;20130;-78
2023/12/14 01:48:41;;;;;;;8.63;7.82;;;;;;;;;;5079723;28;20059;-78
2023/12/14 01:51:08;;;;;;;9.60;8.55;;;;;;;;;;5096067;28;20047;-78
2023/12/14 01:53:34;;;;;;;9.68;8.88;;;;;;;;;;5096514;28;20055;-78
2023/12/14 01:56:00;;;;;;;10.45;9.55;;;;;;;;;;5096861;28;20059;-77
2023/12/14 01:58:26;;;;;;;9.20;8.40;;;;;;;;;;5079655;28;20052;-78
2023/12/14 02:00:52;;;;;;;9.07;8.27;;;;;;;;;;5114510;28;20122;-78
2023/12/14 02:03:19;;;;;;;10.23;9.20;;;;;;;;;;5096447;28;20097;-77
2023/12/14 02:05:45;;;;;;;9.52;8.73;;;;;;;;;;5096335;28;20049;-77
2023/12/14 02:08:11;;;;;;;9.13;8.25;;;;;;;;;;5079549;28;20062;-78
2023/12/14 02:10:37;;;;;;;9.40;8.43;;;;;;;;;;5096877;28;20521;-78
2023/12/14 02:13:03;;;;;;;9.65;8.75;;;;;;;;;;5080394;28;20109;-78
2023/12/14 02:15:29;;;;;;;9.20;8.38;;;;;;;;;;5096241;28;20043;-78
2023/12/14 02:17:55;;;;;;;8.88;8.15;;;;;;;;;;5079258;28;20046;-78
2023/12/14 02:20:22;;;;;;;11.20;8.63;;;;;;;;;;5079607;28;20364;-78
2023/12/14 02:22:51;;;;;;;9.25;8.02;;;;;;;;;;5079189;28;20043;-77
2023/12/14 02:25:17;;;;;;;8.82;7.93;;;;;;;;;;5096516;28;20109;-78
2023/12/14 02:27:43;;;;;;;9.00;7.60;;;;;;;;;;5079366;28;20049;-78
2023/12/14 02:30:09;;;;;;;8.35;7.53;;;;;;;;;;5114123;28;20415;-78
2023/12/14 02:32:35;;;;;;;9.05;7.70;;;;;;;;;;5096429;28;20035;-78
2023/12/14 02:35:02;;;;;;;7.97;7.28;;;;;;;;;;5096202;28;20455;-77
2023/12/14 02:37:28;;;;;;;8.55;7.75;;;;;;;;;;5096094;28;20399;-78
2023/12/14 02:39:54;;;;;;;9.55;7.80;;;;;;;;;;5096130;28;20048;-77
2023/12/14 02:42:20;;;;;;;8.57;7.68;;;;;;;;;;5096901;28;20043;-78
2023/12/14 02:44:46;;;;;;;10.57;8.40;;;;;;;;;;5096314;28;20043;-77
2023/12/14 02:47:13;;;;;;;9.60;8.60;;;;;;;;;;5096799;28;20379;-78
2023/12/14 02:49:39;;;;;;;9.15;8.20;;;;;;;;;;5095314;28;20610;-78
2023/12/14 02:52:05;;;;;;;9.75;8.70;;;;;;;;;;5079119;28;20077;-78
2023/12/14 02:54:31;;;;;;;12.05;8.68;;;;;;;;;;5095625;28;20055;-78
2023/12/14 02:56:57;;;;;;;9.23;8.30;;;;;;;;;;5098187;28;20500;-78
2023/12/14 02:59:23;;;;;;;8.98;8.07;;;;;;;;;;5100762;28;20504;-78
2023/12/14 03:01:49;;;;;;;9.43;7.88;;;;;;;;;;5099899;28;20073;-78
2023/12/14 03:04:15;;;;;;;9.98;8.55;;;;;;;;;;5099823;28;20468;-78
2023/12/14 03:06:41;;;;;;;8.82;7.93;;;;;;;;;;5099790;28;20052;-78
2023/12/14 03:09:07;;;;;;;10.70;8.85;;;;;;;;;;5082392;28;20058;-78
2023/12/14 03:11:34;;;;;;;10.93;8.05;;;;;;;;;;5099323;28;20551;-78
2023/12/14 03:14:00;;;;;;;9.68;8.68;;;;;;;;;;5099669;28;20130;-78
2023/12/14 03:16:26;;;;;;;10.07;8.60;;;;;;;;;;5083557;28;20402;-78
2023/12/14 03:18:52;;;;;;;11.73;8.52;;;;;;;;;;5099545;28;20444;-78
2023/12/14 03:21:19;;;;;;;10.32;9.10;;;;;;;;;;5099696;28;20087;-78
2023/12/14 03:23:45;;;;;;;10.40;9.38;;;;;;;;;;5082472;28;20083;-78
2023/12/14 03:26:11;;;;;;;9.07;8.27;;;;;;;;;;5082411;28;20105;-78
2023/12/14 03:28:37;;;;;;;10.18;8.57;;;;;;;;;;5082531;28;20092;-78
2023/12/14 03:31:04;;;;;;;8.93;7.90;;;;;;;;;;5099262;28;20128;-78
2023/12/14 03:33:30;;;;;;;9.07;8.15;;;;;;;;;;5100048;28;20049;-78
2023/12/14 03:35:56;;;;;;;9.32;8.40;;;;;;;;;;5082370;28;20054;-78
2023/12/14 03:38:22;;;;;;;8.52;7.53;;;;;;;;;;5099067;28;20050;-78
2023/12/14 03:40:48;;;;;;;9.15;7.47;;;;;;;;;;5098828;28;20054;-78
2023/12/14 03:43:14;;;;;;;10.90;7.78;;;;;;;;;;5098833;28;20364;-78
2023/12/14 03:45:41;;;;;;;10.07;9.07;;;;;;;;;;5082125;28;20047;-78
2023/12/14 03:48:07;;;;;;;10.18;7.93;;;;;;;;;;5098755;28;20043;-78
2023/12/14 03:50:33;;;;;;;8.80;7.88;;;;;;;;;;5098927;28;20052;-78
2023/12/14 03:52:59;;;;;;;9.48;8.05;;;;;;;;;;5098921;28;20087;-78
2023/12/14 03:55:25;;;;;;;11.57;8.15;;;;;;;;;;5099117;28;20383;-78
2023/12/14 03:57:51;;;;;;;8.63;7.72;;;;;;;;;;5098804;28;20475;-78
2023/12/14 04:00:18;;;;;;;7.88;7.10;;;;;;;;;;5081836;28;20055;-78
2023/12/14 04:02:44;;;;;;;9.57;7.97;;;;;;;;;;5098347;28;20127;-78
2023/12/14 04:05:10;;;;;;;7.55;6.75;;;;;;;;;;5081899;28;20044;-78
2023/12/14 04:07:40;;;;;;;7.43;6.65;;;;;;;;;;5097470;28;20483;-79
2023/12/14 04:10:13;;;;;;;7.53;6.70;;;;;;;;;;5081491;28;20040;-78
2023/12/14 04:12:39;;;;;;;8.60;7.78;;;;;;;;;;5099351;28;20036;-78
2023/12/14 04:15:06;;;;;;;8.48;7.68;;;;;;;;;;5099210;28;20043;-78
2023/12/14 04:17:33;;;;;;;7.53;6.75;;;;;;;;;;5098396;28;20043;-78
2023/12/14 04:19:59;;;;;;;7.43;6.72;;;;;;;;;;5082295;28;20379;-78
2023/12/14 04:22:26;;;;;;;8.10;7.38;;;;;;;;;;5081585;28;20042;-78
2023/12/14 04:24:52;;;;;;;7.95;7.15;;;;;;;;;;5098267;28;20066;-78
2023/12/14 04:27:18;;;;;;;6.88;6.15;;;;;;;;;;5098528;28;20050;-78
2023/12/14 04:29:44;;;;;;;10.55;7.07;;;;;;;;;;5098011;28;20089;-78
2023/12/14 04:32:11;;;;;;;9.52;7.70;;;;;;;;;;5116096;28;20054;-78
2023/12/14 04:34:37;;;;;;;9.68;7.68;;;;;;;;;;5116661;28;20087;-78
2023/12/14 04:37:03;;;;;;;9.50;6.72;;;;;;;;;;5098765;28;20048;-78
2023/12/14 04:39:29;;;;;;;9.38;7.00;;;;;;;;;;5097920;28;20135;-78
2023/12/14 04:41:55;;;;;;;8.15;7.35;;;;;;;;;;5098750;28;20047;-78
2023/12/14 04:44:22;;;;;;;8.43;7.63;;;;;;;;;;5081348;28;20047;-78
2023/12/14 04:46:48;;;;;;;7.15;6.43;;;;;;;;;;5097527;28;20082;-78
2023/12/14 04:49:15;;;;;;;8.52;6.90;;;;;;;;;;5077522;28;20407;-79
2023/12/14 04:51:41;;;;;;;7.45;6.70;;;;;;;;;;5095056;28;20056;-78
2023/12/14 04:54:07;;;;;;;8.95;7.05;;;;;;;;;;5077600;28;20052;-78
2023/12/14 04:56:33;;;;;;;8.20;6.70;;;;;;;;;;5094268;28;20048;-78
2023/12/14 04:58:59;;;;;;;8.20;6.78;;;;;;;;;;5094452;28;20088;-78
2023/12/14 05:01:28;;;;;;;8.32;7.03;;;;;;;;;;5094019;28;20083;-78
2023/12/14 05:03:55;;;;;;;7.85;7.18;;;;;;;;;;5077109;28;20083;-79
2023/12/14 05:06:21;;;;;;;9.02;7.28;;;;;;;;;;5094075;28;20048;-78
2023/12/14 05:08:47;;;;;;;10.02;8.27;;;;;;;;;;5093913;28;20511;-78
2023/12/14 05:11:13;;;;;;;8.05;7.25;;;;;;;;;;5093945;28;20388;-78
2023/12/14 05:13:40;;;;;;;11.70;7.32;;;;;;;;;;5093907;28;20048;-79
2023/12/14 05:16:06;;;;;;;10.07;7.20;;;;;;;;;;5093918;28;20051;-78
2023/12/14 05:18:32;;;;;;;10.93;8.20;;;;;;;;;;5093994;28;20480;-79
2023/12/14 05:20:58;;;;;;;9.77;7.20;;;;;;;;;;5094109;28;20426;-78
2023/12/14 05:23:24;;;;;;;8.98;7.57;;;;;;;;;;5093717;28;20098;-78
2023/12/14 05:25:50;;;;;;;7.90;7.10;;;;;;;;;;5093745;28;20043;-78
2023/12/14 05:28:17;;;;;;;9.20;7.00;;;;;;;;;;5093682;28;20044;-78
2023/12/14 05:30:43;;;;;;;10.18;8.32;;;;;;;;;;5076764;28;20040;-78
2023/12/14 05:33:09;;;;;;;8.70;7.80;;;;;;;;;;5093581;28;20075;-78
2023/12/14 05:35:35;;;;;;;9.48;7.90;;;;;;;;;;5093560;28;20048;-78
2023/12/14 05:38:01;;;;;;;10.30;8.57;;;;;;;;;;5060023;28;20062;-78
2023/12/14 05:40:27;;;;;;;9.00;7.90;;;;;;;;;;5093484;28;20050;-78
2023/12/14 05:42:53;;;;;;;11.15;7.60;;;;;;;;;;5093423;28;20052;-78
2023/12/14 05:45:19;;;;;;;9.55;7.80;;;;;;;;;;5076488;28;20040;-78
2023/12/14 05:47:45;;;;;;;8.93;7.43;;;;;;;;;;5076642;28;20051;-78
2023/12/14 05:50:12;;;;;;;7.57;6.78;;;;;;;;;;5093047;28;20483;-78
2023/12/14 05:52:40;;;;;;;8.65;7.75;;;;;;;;;;5076664;28;20392;-80
2023/12/14 05:55:08;;;;;;;8.77;7.85;;;;;;;;;;5076276;28;20043;-79
2023/12/14 05:57:34;;;;;;;8.63;7.53;;;;;;;;;;5093913;28;20341;-78
2023/12/14 06:00:00;;;;;;;7.90;7.10;;;;;;;;;;5077212;28;20047;-78
2023/12/14 06:02:26;;;;;;;7.60;6.70;;;;;;;;;;5059451;28;20043;-78
2023/12/14 06:04:52;;;;;;;8.20;7.47;;;;;;;;;;5093071;28;20051;-78
2023/12/14 06:07:18;;;;;;;14.55;7.75;;;;;;;;;;5093365;28;20044;-78
2023/12/14 06:09:45;;;;;;;7.60;6.78;;;;;;;;;;5093116;28;20044;-78
2023/12/14 06:12:11;;;;;;;8.80;7.57;;;;;;;;;;5093000;28;20088;-78
2023/12/14 06:14:37;;;;;;;8.63;6.93;;;;;;;;;;5093312;28;20048;-78
2023/12/14 06:17:03;;;;;;;9.77;7.30;;;;;;;;;;5076400;28;20059;-78
2023/12/14 06:19:29;;;;;;;8.80;7.97;;;;;;;;;;5076087;28;20044;-78
2023/12/14 06:21:55;;;;;;;8.55;7.20;;;;;;;;;;5092614;28;20047;-78
2023/12/14 06:24:22;;;;;;;9.90;7.47;;;;;;;;;;5092822;28;20045;-78
2023/12/14 06:26:48;;;;;;;8.63;7.80;;;;;;;;;;5092805;28;20065;-78
2023/12/14 06:29:14;;;;;;;10.77;8.57;;;;;;;;;;5092679;28;20044;-78
2023/12/14 06:31:40;;;;;;;9.40;8.50;;;;;;;;;;5094399;28;20067;-78
2023/12/14 06:34:07;;;;;;;9.48;8.55;;;;;;;;;;5097047;28;20495;-78
2023/12/14 06:36:34;;;;;;;10.52;8.32;;;;;;;;;;5080308;28;20361;-78
2023/12/14 06:39:00;;;;;;;9.05;8.15;;;;;;;;;;5097338;28;20044;-78
2023/12/14 06:41:27;;;;;;;10.27;8.75;;;;;;;;;;5080111;28;20044;-78
2023/12/14 06:43:54;;;;;;;11.48;9.25;;;;;;;;;;5097113;28;20044;-78
2023/12/14 06:46:20;;;;;;;11.90;8.55;;;;;;;;;;5096830;28;20048;-80
2023/12/14 06:48:46;;;;;;;12.25;9.13;;;;;;;;;;5096581;28;20066;-78
2023/12/14 06:51:13;;;;;;;10.60;9.38;;;;;;;;;;5096660;28;20102;-78
2023/12/14 06:53:42;;;;;;;11.07;9.93;;;;;;;;;;5096937;28;20044;-78
2023/12/14 06:56:12;;;;;;;10.32;8.55;;;;;;;;;;5096605;28;20083;-78
2023/12/14 06:58:39;;;;;;;9.63;8.70;;;;;;;;;;5079620;28;20048;-78
2023/12/14 07:01:05;;;;;;;10.77;8.63;;;;;;;;;;5096240;28;20056;-78
2023/12/14 07:03:31;;;;;;;11.23;9.43;;;;;;;;;;5079508;28;20087;-79
2023/12/14 07:05:58;;;;;;;10.77;8.98;;;;;;;;;;5096438;28;20051;-78
2023/12/14 07:08:24;;;;;;;11.55;9.85;;;;;;;;;;5096073;28;20477;-78
2023/12/14 07:10:50;;;;;;;13.35;10.15;;;;;;;;;;5096334;28;20417;-78
2023/12/14 07:13:16;;;;;;;14.82;10.00;;;;;;;;;;5062777;28;20476;-78
2023/12/14 07:15:42;;;;;;;14.23;10.10;;;;;;;;;;5079760;28;20048;-78
2023/12/14 07:18:10;;;;;;;12.85;9.50;;;;;;;;;;5096973;28;20452;-77
2023/12/14 07:20:36;;;;;;;12.93;10.50;;;;;;;;;;5096456;28;20048;-78
2023/12/14 07:23:02;;;;;;;12.55;10.82;;;;;;;;;;5096906;28;20131;-78
2023/12/14 07:25:28;;;;;;;12.43;10.15;;;;;;;;;;5079160;28;20047;-78
2023/12/14 07:27:54;;;;;;;13.20;10.82;;;;;;;;;;5096266;28;20052;-78
2023/12/14 07:30:20;;;;;;;12.77;9.63;;;;;;;;;;5078988;28;20153;-78
2023/12/14 07:32:46;;;;;;;10.77;9.52;;;;;;;;;;5096784;28;20458;-78
2023/12/14 07:35:12;;;;;;;11.43;8.93;;;;;;;;;;5079025;28;20099;-78
2023/12/14 07:37:38;;;;;;;11.15;9.40;;;;;;;;;;5096672;28;20056;-77
2023/12/14 07:40:05;;;;;;;11.60;10.10;;;;;;;;;;5095706;28;20101;-77
2023/12/14 07:42:31;;;;;;;11.40;9.45;;;;;;;;;;5095725;28;20090;-77
2023/12/14 07:44:57;;;;;;;9.57;8.48;;;;;;;;;;5063068;28;20090;-78
2023/12/14 07:47:23;;;;;;;11.57;9.23;;;;;;;;;;5079591;28;20051;-78
2023/12/14 07:49:49;;;;;;;12.35;8.60;;;;;;;;;;5095925;28;20052;-77
2023/12/14 07:52:15;;;;;;;10.40;9.18;;;;;;;;;;5095492;28;20495;-78
2023/12/14 07:54:42;;;;;;;9.52;8.65;;;;;;;;;;5096979;28;20054;-78
2023/12/14 07:57:08;;;;;;;10.40;8.88;;;;;;;;;;5095762;28;20131;-78
2023/12/14 07:59:34;;;;;;;10.38;9.32;;;;;;;;;;5079405;28;20368;-78
2023/12/14 08:02:00;;;;;;;11.00;8.82;;;;;;;;;;5078871;28;20110;-78
2023/12/14 08:04:26;;;;;;;10.68;9.00;;;;;;;;;;5061631;28;20130;-78
2023/12/14 08:06:52;;;;;;;9.75;8.77;;;;;;;;;;5078395;28;20098;-78
2023/12/14 08:09:18;;;;;;;10.98;9.23;;;;;;;;;;5095073;28;20052;-78
2023/12/14 08:11:44;;;;;;;12.00;9.27;;;;;;;;;;5095996;28;20056;-78
2023/12/14 08:14:10;;;;;;;10.93;9.82;;;;;;;;;;5095108;28;20044;-78
2023/12/14 08:16:36;;;;;;;11.18;9.95;;;;;;;;;;5095045;28;20051;-78
2023/12/14 08:19:02;;;;;;;12.95;9.77;;;;;;;;;;5095036;28;20083;-78
2023/12/14 08:21:28;;;;;;;10.68;9.45;;;;;;;;;;5095794;28;20461;-78
2023/12/14 08:23:54;;;;;;;11.50;10.30;;;;;;;;;;5095780;28;20079;-78
2023/12/14 08:26:20;;;;;;;13.80;10.20;;;;;;;;;;5078945;28;20044;-78
2023/12/14 08:28:47;;;;;;;13.30;9.43;;;;;;;;;;5095651;28;20044;-78
2023/12/14 08:31:13;;;;;;;12.80;9.30;;;;;;;;;;5077583;28;20040;-78
2023/12/14 08:33:41;;;;;;;11.60;9.23;;;;;;;;;;5095575;28;20044;-78
2023/12/14 08:36:07;;;;;;;11.52;9.70;;;;;;;;;;5094971;28;20598;-78
2023/12/14 08:38:33;;;;;;;12.57;10.13;;;;;;;;;;5094578;28;20476;-77
2023/12/14 08:41:00;;;;;;;13.20;10.25;;;;;;;;;;5078554;28;20083;-78
2023/12/14 08:43:26;;;;;;;12.45;10.82;;;;;;;;;;5094569;28;20052;-78
2023/12/14 08:45:52;;;;;;;12.93;10.23;;;;;;;;;;5094164;28;20040;-78
2023/12/14 08:48:19;;;;;;;11.57;9.63;;;;;;;;;;5097055;28;20379;-78
2023/12/14 08:50:45;;;;;;;13.82;10.27;;;;;;;;;;5098387;28;20048;-79
2023/12/14 08:53:11;;;;;;;12.45;9.48;;;;;;;;;;5097771;28;20043;-80
2023/12/14 08:55:37;;;;;;;13.18;9.82;;;;;;;;;;5097335;28;20044;-79
2023/12/14 08:58:03;;;;;;;12.75;10.43;;;;;;;;;;5097638;28;20051;-79
2023/12/14 09:00:29;;;;;;;12.60;10.23;;;;;;;;;;5064421;28;20047;-79
2023/12/14 09:02:55;;;;;;;12.32;10.50;;;;;;;;;;5080692;28;20551;-79
2023/12/14 09:05:22;;;;;;;13.15;9.23;;;;;;;;;;5097541;28;20044;-79
2023/12/14 09:07:48;;;;;;;12.90;10.82;;;;;;;;;;5080580;28;20044;-80
2023/12/14 09:10:14;;;;;;;13.18;10.80;;;;;;;;;;5097227;28;20036;-77
2023/12/14 09:12:40;;;;;;;12.82;10.73;;;;;;;;;;5098259;28;20040;-78
2023/12/14 09:15:06;;;;;;;14.35;10.35;;;;;;;;;;5097339;28;20047;-78
2023/12/14 09:17:32;;;;;;;14.23;10.70;;;;;;;;;;5097325;28;20075;-78
2023/12/14 09:20:04;;;;;;;12.50;10.93;;;;;;;;;;5081058;28;20352;-78
2023/12/14 09:22:31;;;;;;;13.45;10.88;;;;;;;;;;5098141;28;20131;-78
2023/12/14 09:24:57;;;;;;;14.70;11.35;;;;;;;;;;5080501;28;20035;-77
2023/12/14 09:27:23;;;;;;;14.88;10.63;;;;;;;;;;5097380;28;20043;-78
2023/12/14 09:29:50;;;;;;;14.63;11.00;;;;;;;;;;5097794;28;20446;-78
2023/12/14 09:32:17;;;;;;;14.27;11.52;;;;;;;;;;5097877;28;20126;-78
2023/12/14 09:34:43;;;;;;;12.07;10.45;;;;;;;;;;5096917;28;20054;-77
2023/12/14 09:37:11;;;;;;;11.68;10.30;;;;;;;;;;5096924;28;20043;-78
2023/12/14 09:39:37;;;;;;;13.15;11.05;;;;;;;;;;5096845;28;20055;-78
2023/12/14 09:42:07;;;;;;;13.35;10.25;;;;;;;;;;5096923;28;20112;-78
2023/12/14 09:44:33;;;;;;;13.70;11.43;;;;;;;;;;5096824;28;20051;-77
2023/12/14 09:47:00;;;;;;;12.82;10.43;;;;;;;;;;5097099;28;20081;-77
2023/12/14 09:49:30;;;;;;;11.80;10.52;;;;;;;;;;5096354;28;20361;-77
2023/12/14 09:52:00;;;;;;;12.32;10.95;;;;;;;;;;5097204;28;20456;-78
2023/12/14 09:54:26;;;;;;;12.82;11.00;;;;;;;;;;5096637;28;20073;-78
2023/12/14 09:56:53;;;;;;;15.75;11.35;;;;;;;;;;5096621;28;20365;-77
2023/12/14 09:59:19;;;;;;;12.23;9.80;;;;;;;;;;5096883;28;20047;-77
2023/12/14 10:01:46;;;;;;;11.48;10.23;;;;;;;;;;5096549;28;20054;-78
2023/12/14 10:04:13;;;;;;;13.40;10.30;;;;;;;;;;5096529;28;20047;-78
2023/12/14 10:06:40;;;;;;;11.35;10.15;;;;;;;;;;5096403;28;20536;-78
2023/12/14 10:09:09;;;;;;;13.32;10.65;;;;;;;;;;5096569;28;20392;-78
2023/12/14 10:11:36;;;;;;;12.30;10.38;;;;;;;;;;5096407;28;20097;-78
2023/12/14 10:14:04;;;;;;;13.45;10.68;;;;;;;;;;5079770;28;20044;-78
2023/12/14 10:16:33;;;;;;;15.93;11.95;;;;;;;;;;5097200;28;20043;-78
2023/12/14 10:19:00;;;;;;;13.50;10.90;;;;;;;;;;5096363;28;20043;-78
2023/12/14 10:21:27;;;;;;;17.17;12.13;;;;;;;;;;5095949;28;20047;-78
2023/12/14 10:23:55;;;;;;;13.45;11.55;;;;;;;;;;5096269;28;20051;-78
2023/12/14 10:26:23;;;;;;;13.93;11.65;;;;;;;;;;5079104;28;20518;-78
2023/12/14 10:28:51;;;;;;;15.18;11.50;;;;;;;;;;5096135;28;20086;-78
2023/12/14 10:31:18;;;;;;;14.73;12.15;;;;;;;;;;5079322;28;20526;-78
2023/12/14 10:33:44;;;;;;;15.40;11.23;;;;;;;;;;5079568;28;20043;-78
2023/12/14 10:36:10;;;;;;;12.60;11.30;;;;;;;;;;5096962;28;20051;-78
2023/12/14 10:38:38;;;;;;;18.63;12.45;;;;;;;;;;5096060;28;20079;-78
2023/12/14 10:41:04;;;;;;;17.13;13.00;;;;;;;;;;5096097;28;20066;-78
2023/12/14 10:43:33;;;;;;;14.75;12.10;;;;;;;;;;5096099;28;20083;-78
2023/12/14 10:45:59;;;;;;;16.10;12.57;;;;;;;;;;5096075;28;20051;-78
2023/12/14 10:48:25;;;;;;;16.23;11.35;;;;;;;;;;5095793;28;20036;-78
2023/12/14 10:50:52;;;;;;;15.02;11.27;;;;;;;;;;5096074;28;20051;-78
2023/12/14 10:53:19;;;;;;;14.43;12.00;;;;;;;;;;5096527;28;20050;-77
2023/12/14 10:55:45;;;;;;;16.95;13.18;;;;;;;;;;5095981;28;20054;-77
2023/12/14 10:58:12;;;;;;;17.55;12.52;;;;;;;;;;5079152;28;20066;-78
2023/12/14 11:00:38;;;;;;;19.60;13.30;;;;;;;;;;5095930;28;20054;-78
2023/12/14 11:03:05;;;;;;;13.85;12.02;;;;;;;;;;5096008;28;20083;-78
2023/12/14 11:05:33;;;;;;;14.55;12.65;;;;;;;;;;5079336;28;20055;-78
2023/12/14 11:08:11;;;;;;;13.55;12.18;;;;;;;;;;5095876;28;20066;-78
2023/12/14 11:10:39;;;;;;;18.92;13.40;;;;;;;;;;5095956;28;20066;-78
2023/12/14 11:13:10;;;;;;;14.65;13.02;;;;;;;;;;5096635;28;20130;-78
2023/12/14 11:15:37;;;;;;;17.80;13.20;;;;;;;;;;5096085;28;20133;-78
2023/12/14 11:18:09;;;;;;;15.00;11.70;;;;;;;;;;5097285;28;20044;-78
2023/12/14 11:20:45;;;;;;;17.05;13.77;;;;;;;;;;5083512;28;20043;-78
2023/12/14 11:23:13;;;;;;;17.95;13.50;;;;;;;;;;5082683;28;20052;-78
2023/12/14 11:25:40;;;;;;;14.82;12.50;;;;;;;;;;5117815;28;20051;-78
2023/12/14 11:28:09;;;;;;;17.38;12.48;;;;;;;;;;5118240;28;20051;-78
2023/12/14 11:30:38;;;;;;;15.10;12.88;;;;;;;;;;5099205;28;20051;-77
2023/12/14 11:33:04;;;;;;;12.93;11.48;;;;;;;;;;5082527;28;20051;-78
2023/12/14 11:35:30;;;;;;;13.20;10.93;;;;;;;;;;5099567;28;20085;-78
2023/12/14 11:37:59;;;;;;;15.77;11.68;;;;;;;;;;5099563;28;20104;-78
2023/12/14 11:40:26;;;;;;;15.63;12.20;;;;;;;;;;5099908;28;20092;-78
2023/12/14 11:43:01;;;;;;;14.55;11.32;;;;;;;;;;5099970;28;20047;-78
2023/12/14 11:45:28;;;;;;;12.52;10.43;;;;;;;;;;5099124;28;20059;-78
2023/12/14 11:48:04;;;;;;;19.80;11.88;;;;;;;;;;5099060;28;20054;-78
2023/12/14 11:50:30;;;;;;;14.02;11.27;;;;;;;;;;5098858;28;20480;-78
2023/12/14 11:52:57;;;;;;;14.63;11.77;;;;;;;;;;5099812;28;20051;-78
2023/12/14 11:55:23;;;;;;;15.13;11.57;;;;;;;;;;5099748;28;20047;-78
2023/12/14 11:57:49;;;;;;;14.93;11.90;;;;;;;;;;5098878;28;20476;-78
2023/12/14 12:00:16;;;;;;;15.40;12.40;;;;;;;;;;5082000;28;20050;-78
2023/12/14 12:02:42;;;;;;;15.48;11.55;;;;;;;;;;5098822;28;20055;-77
2023/12/14 12:05:08;;;;;;;14.63;10.65;;;;;;;;;;5098619;28;20040;-76
2023/12/14 12:07:34;;;;;;;13.95;11.18;;;;;;;;;;5081989;28;20521;-77
2023/12/14 12:10:00;;;;;;;12.95;11.55;;;;;;;;;;5098738;28;20120;-76
2023/12/14 12:12:26;;;;;;;15.13;11.88;;;;;;;;;;5081799;28;20189;-77
2023/12/14 12:14:53;;;;;;;14.18;11.75;;;;;;;;;;5098450;28;20368;-77
2023/12/14 12:17:20;;;;;;;14.38;12.27;;;;;;;;;;5081580;28;20043;-78
2023/12/14 12:19:46;;;;;;;12.95;11.55;;;;;;;;;;5098417;28;20043;-78
2023/12/14 12:22:12;;;;;;;13.82;11.60;;;;;;;;;;5099175;28;20394;-77
2023/12/14 12:24:38;;;;;;;14.30;11.70;;;;;;;;;;5098329;28;20039;-77
2023/12/14 12:27:04;;;;;;;13.32;11.93;;;;;;;;;;5098327;28;20048;-76
2023/12/14 12:29:30;;;;;;;14.23;12.73;;;;;;;;;;5097363;28;20051;-77
2023/12/14 12:31:57;;;;;;;17.45;11.88;;;;;;;;;;5098498;28;20062;-77
2023/12/14 12:34:23;;;;;;;13.25;11.52;;;;;;;;;;5098485;28;20043;-77
2023/12/14 12:36:49;;;;;;;15.93;12.68;;;;;;;;;;5081252;28;20055;-77
2023/12/14 12:39:15;;;;;;;14.18;11.82;;;;;;;;;;5098831;28;20044;-77
2023/12/14 12:41:41;;;;;;;18.40;12.38;;;;;;;;;;5097666;28;20055;-77
2023/12/14 12:44:08;;;;;;;12.10;10.80;;;;;;;;;;5098731;28;20044;-77
2023/12/14 12:46:38;;;;;;;15.60;12.70;;;;;;;;;;5081121;28;20138;-77
2023/12/14 12:49:05;;;;;;;15.70;12.82;;;;;;;;;;5115868;28;20056;-77
2023/12/14 12:51:32;;;;;;;13.95;12.23;;;;;;;;;;5081062;28;20092;-77
2023/12/14 12:53:59;;;;;;;12.90;11.32;;;;;;;;;;5097499;28;20065;-77
2023/12/14 12:56:28;;;;;;;15.63;11.65;;;;;;;;;;5097745;28;20387;-77
2023/12/14 12:59:04;;;;;;;15.88;11.85;;;;;;;;;;5097963;28;20078;-78
2023/12/14 13:01:30;;;;;;;15.23;11.70;;;;;;;;;;5098555;28;20058;-78
2023/12/14 13:03:57;;;;;;;14.25;12.25;;;;;;;;;;5115601;28;20054;-78
2023/12/14 13:06:26;;;;;;;13.43;11.13;;;;;;;;;;5097519;28;20035;-78
2023/12/14 13:08:52;;;;;;;14.40;11.40;;;;;;;;;;5097417;28;20081;-78
2023/12/14 13:11:19;;;;;;;13.02;11.50;;;;;;;;;;5097449;28;20040;-78
2023/12/14 13:13:45;;;;;;;13.48;12.05;;;;;;;;;;5097104;28;20039;-78
2023/12/14 13:16:13;;;;;;;12.20;10.93;;;;;;;;;;5080409;28;20090;-78
2023/12/14 13:18:40;;;;;;;14.43;11.50;;;;;;;;;;5080279;28;20044;-78
2023/12/14 13:21:06;;;;;;;14.27;12.18;;;;;;;;;;5097131;28;20100;-78
2023/12/14 13:23:33;;;;;;;15.70;13.23;;;;;;;;;;5096796;28;20047;-79
2023/12/14 13:25:59;;;;;;;14.10;11.88;;;;;;;;;;5080426;28;20083;-78
2023/12/14 13:28:25;;;;;;;13.68;12.07;;;;;;;;;;5080199;28;20093;-78
2023/12/14 13:30:51;;;;;;;15.75;12.80;;;;;;;;;;5080746;28;20135;-78
2023/12/14 13:33:17;;;;;;;13.95;11.80;;;;;;;;;;5097863;28;20047;-78
2023/12/14 13:35:43;;;;;;;16.70;11.93;;;;;;;;;;5097028;28;20387;-78
2023/12/14 13:38:09;;;;;;;13.73;11.90;;;;;;;;;;5096950;28;20048;-78
2023/12/14 13:40:35;;;;;;;14.90;12.75;;;;;;;;;;5079460;28;20048;-78
2023/12/14 13:43:09;;;;;;;15.40;13.02;;;;;;;;;;5096937;28;20043;-78
2023/12/14 13:45:35;;;;;;;16.67;13.27;;;;;;;;;;5097048;28;20056;-78
2023/12/14 13:48:01;;;;;;;15.73;12.70;;;;;;;;;;5096342;28;20293;-78
2023/12/14 13:50:28;;;;;;;14.90;12.18;;;;;;;;;;5096228;28;20452;-76
2023/12/14 13:52:54;;;;;;;15.20;12.60;;;;;;;;;;5096661;28;20058;-76
2023/12/14 13:55:20;;;;;;;15.80;14.10;;;;;;;;;;5096350;28;20052;-77
2023/12/14 13:57:47;;;;;;;14.00;12.38;;;;;;;;;;5114263;28;20547;-77
2023/12/14 14:00:14;;;;;;;15.65;12.65;;;;;;;;;;5096539;28;20091;-77
2023/12/14 14:02:40;;;;;;;15.35;12.13;;;;;;;;;;5096288;28;20510;-77
2023/12/14 14:05:06;;;;;;;14.40;11.70;;;;;;;;;;5079686;28;20043;-78
2023/12/14 14:07:32;;;;;;;17.50;12.57;;;;;;;;;;5114354;28;20094;-77
2023/12/14 14:09:58;;;;;;;15.38;13.00;;;;;;;;;;5095893;28;20044;-77
2023/12/14 14:12:24;;;;;;;17.65;13.23;;;;;;;;;;5096319;28;20134;-77
2023/12/14 14:14:50;;;;;;;16.25;12.68;;;;;;;;;;5097189;28;20055;-77
2023/12/14 14:17:17;;;;;;;15.07;13.13;;;;;;;;;;5096337;28;20111;-77
2023/12/14 14:19:43;;;;;;;16.83;14.00;;;;;;;;;;5096337;28;20180;-77
2023/12/14 14:22:09;;;;;;;15.18;13.57;;;;;;;;;;5079408;28;20479;-77
2023/12/14 14:24:35;;;;;;;15.02;13.05;;;;;;;;;;5097119;28;20092;-77